首页
METAR-TAF:

METAR-TAF

机场 :

圣加仑, 瑞士

纬度: 47-29-06N, 经度: 009-33-43E, 海拔: 398米

当前天气观测

该预报发布于14分钟前的15:20 UTC
风速6节,风向西,在西转西南西北之间变化
温度 27°C
湿度 45%
气压 1014 hPa
能见度10公里或以上
散云层高于4500英尺, 积雨云.

METAR: LSZR 181520Z 27006KT 240V320 9999 SCT045CB 27/14 Q1014 NOSIG RMK L

时间: 17:34 (15:34 UTC)

预报

该预报发布于1小时和9分钟前的14:25 UTC
预报有效从18日的 15点(UTC)到 18日的 24点(UTC)
风速3节,风向多变
能见度10公里或以上
少量云层高于5000英尺
几率 40%
从 18日的 16点(UTC)到 18日的 21点(UTC)
风速15节,风向,有时为35节阵风
散云层高于6000英尺, 积雨云.
雷暴, 小雨

TAF: LSZR 181425Z 1815/1824 VRB03KT 9999 FEW050 PROB40 1816/1821 18015G35KT -TSRA SCT060CB

超过4000个机场的气象观测和天气预报(METAR&TAF报告)。

可查询的气象台以黄色和红色小点在地图上表示。

将鼠标移到小点上方,可查看气象台名称。

然后点击查看天气观测和预报。

如需切换地图:点击带黑十字的绿色按钮放大地图;点击带横线的绿色按钮缩小地图;或者点击绿色箭头查看邻近地区的地图。


METAR-TAF: